メインページ
METAR-TAF:

METAR-TAF

空港 :

フロリアノーポリス, サンタカタリーナ州, ブラジル

緯度: 27-40S, 経度: 048-33W, 海抜: 5m

現時点の気象観測

当レポートは18分前の02:00(UTC)に作成
西/北西の風 6kt
気温 17°C
湿度 88%
気圧 1024 hPa
視程10km以上
高度1900ftの雲はほとんどない

METAR: SBFL 010200Z 29006KT 9999 FEW019 17/15 Q1024

時間: 23:18 (02:18 UTC)

予報

当レポートは4時間48分前の21:30(UTC)に作成
予報は01日の 00時(UTC)から 01日の 24時(UTC)まで有効
西の風 4kt
視程10km以上
1,500メートル以下は雲なし、積乱雲なし
01日の 12時(UTC)から 01日の 14時(UTC)まで徐々に
の風 7kt

TAF: SBFL 302130Z 0100/0124 28004KT CAVOK TN15/0108Z TX25/0117Z BECMG 0112/0114 36007KT RMK PDW

4,000以上の空港の気象観測と天気予報(METAR報とTAF報)

利用可能な観測所は地図上に黄色い丸と赤い丸で示す。

丸の上にカーソルを重ねると観測所名を参照できる。

次にクリックすると気象観測と天気予報を参照できる。

マップの切り替え:黒色「×」印の緑ボタンをクリックして拡大、「-」印の緑ボタンをクリックして縮小、緑色の三角印をクリックして隣りの地図に切り替え


METAR-TAF: